createdAt,value
2023-01-25T00:02:17.794Z,101081.64
2023-01-25T00:04:46.282Z,101074.63
2023-01-25T00:07:14.601Z,101075.34
2023-01-25T00:09:42.920Z,101074.28
2023-01-25T00:12:11.333Z,101072.54
2023-01-25T00:14:39.540Z,101071.11
2023-01-25T00:17:07.818Z,101071.65
2023-01-25T00:19:36.227Z,101071.48
2023-01-25T00:22:04.433Z,101068.52
2023-01-25T00:24:32.733Z,101067.84
2023-01-25T00:27:02.471Z,101067.30
2023-01-25T00:29:32.882Z,101065.56
2023-01-25T00:32:01.356Z,101065.04
2023-01-25T00:34:43.977Z,101070.45
2023-01-25T00:37:28.663Z,101069.05
2023-01-25T00:39:58.970Z,101068.89
2023-01-25T00:42:27.366Z,101068.89
2023-01-25T00:44:55.699Z,101062.77
2023-01-25T00:47:24.027Z,101061.02
2023-01-25T00:49:52.441Z,101063.11
2023-01-25T00:52:22.678Z,101062.79
2023-01-25T00:54:51.119Z,101057.00
2023-01-25T00:57:19.453Z,101052.80
2023-01-25T00:59:48.039Z,101049.30
2023-01-25T01:02:16.511Z,101048.95
2023-01-25T01:04:44.881Z,101046.31
2023-01-25T01:07:15.469Z,101043.88
2023-01-25T01:09:43.869Z,101035.34
2023-01-25T01:12:12.263Z,101030.78
2023-01-25T01:14:40.575Z,101026.05
2023-01-25T01:17:08.946Z,101023.24
2023-01-25T01:19:37.323Z,101019.58
2023-01-25T01:22:05.645Z,101021.17
2023-01-25T01:24:34.004Z,101016.45
2023-01-25T01:27:04.269Z,101015.90
2023-01-25T01:29:32.614Z,101009.06
2023-01-25T01:32:01.037Z,101005.58
2023-01-25T01:34:29.462Z,101006.09
2023-01-25T01:36:57.804Z,101004.88
2023-01-25T01:39:26.232Z,100999.27
2023-01-25T01:41:54.567Z,100992.11
2023-01-25T01:44:44.893Z,100993.67
2023-01-25T01:47:27.622Z,100992.80
2023-01-25T01:50:04.775Z,100991.05
2023-01-25T01:52:37.392Z,100989.48
2023-01-25T01:55:11.951Z,100985.65
2023-01-25T01:58:00.365Z,100982.15
2023-01-25T02:00:34.630Z,100977.59
2023-01-25T02:03:03.012Z,100974.08
2023-01-25T02:05:36.730Z,100969.55
2023-01-25T02:08:07.163Z,100969.90
2023-01-25T02:10:37.052Z,100969.19
2023-01-25T02:13:05.370Z,100966.03
2023-01-25T02:15:51.100Z,100966.55
2023-01-25T02:18:20.305Z,100968.31
2023-01-25T02:20:52.879Z,100968.84
2023-01-25T02:24:09.803Z,100966.58
2023-01-25T02:26:40.635Z,100970.23
2023-01-25T02:29:11.049Z,100967.27
2023-01-25T02:31:39.640Z,100965.16
2023-01-25T02:34:08.208Z,100959.91
2023-01-25T02:36:36.639Z,100963.77
2023-01-25T02:39:13.202Z,100962.90
2023-01-25T02:41:44.047Z,100961.86
2023-01-25T02:44:20.571Z,100962.38
2023-01-25T02:46:49.004Z,100965.70
2023-01-25T02:49:17.797Z,100970.77
2023-01-25T02:51:57.561Z,100968.31
2023-01-25T02:54:27.072Z,100963.59
2023-01-25T02:56:56.665Z,100963.06
2023-01-25T02:59:26.301Z,100961.13
2023-01-25T03:01:56.730Z,100957.63
2023-01-25T03:04:25.065Z,100961.64
2023-01-25T03:06:53.542Z,100957.62
2023-01-25T03:09:21.906Z,100957.44
2023-01-25T03:11:50.892Z,100954.64
2023-01-25T03:14:20.170Z,100955.33
2023-01-25T03:16:48.523Z,100954.79
2023-01-25T03:19:17.333Z,100953.73
2023-01-25T03:21:46.928Z,100947.63
2023-01-25T03:24:15.509Z,100947.13
2023-01-25T03:27:06.305Z,100951.48
2023-01-25T03:29:42.998Z,100949.05
2023-01-25T03:32:15.246Z,100949.41
2023-01-25T03:34:43.656Z,100949.04
2023-01-25T03:37:12.145Z,100947.65
2023-01-25T03:39:41.458Z,100945.02
2023-01-25T03:42:10.557Z,100946.44
2023-01-25T03:44:38.950Z,100943.11
2023-01-25T03:47:07.866Z,100941.71
2023-01-25T03:49:36.535Z,100937.00
2023-01-25T03:52:05.484Z,100934.73
2023-01-25T03:54:38.969Z,100935.29
2023-01-25T03:57:08.435Z,100939.84
2023-01-25T03:59:44.310Z,100936.52
2023-01-25T04:02:14.882Z,100937.73
2023-01-25T04:04:43.806Z,100932.13
2023-01-25T04:07:12.283Z,100931.63
2023-01-25T04:09:41.235Z,100928.83
2023-01-25T04:12:10.238Z,100927.06
2023-01-25T04:14:44.593Z,100925.14
2023-01-25T04:17:24.206Z,100922.35
2023-01-25T04:19:55.813Z,100913.10
2023-01-25T04:22:27.873Z,100911.02
2023-01-25T04:24:57.506Z,100911.70
2023-01-25T04:27:25.997Z,100911.52
2023-01-25T04:30:02.865Z,100909.06
2023-01-25T04:32:32.068Z,100906.60
2023-01-25T04:35:01.035Z,100904.31
2023-01-25T04:37:30.391Z,100899.95
2023-01-25T04:40:00.204Z,100900.13
2023-01-25T04:42:30.867Z,100901.34
2023-01-25T04:45:00.135Z,100901.86
2023-01-25T04:47:28.868Z,100896.63
2023-01-25T04:49:57.739Z,100893.65
2023-01-25T04:52:27.857Z,100893.64
2023-01-25T04:54:56.614Z,100897.13
2023-01-25T04:57:25.064Z,100894.33
2023-01-25T04:59:54.078Z,100895.38
2023-01-25T05:02:23.812Z,100891.34
2023-01-25T05:04:52.245Z,100890.64
2023-01-25T05:07:21.188Z,100889.42
2023-01-25T05:09:49.643Z,100886.10
2023-01-25T05:12:20.327Z,100886.44
2023-01-25T05:14:55.778Z,100883.98
2023-01-25T05:17:24.456Z,100888.21
2023-01-25T05:19:52.821Z,100884.20
2023-01-25T05:22:23.632Z,100884.73
2023-01-25T05:24:54.296Z,100883.31
2023-01-25T05:27:23.135Z,100882.79
2023-01-25T05:29:58.129Z,100883.66
2023-01-25T05:32:45.143Z,100885.23
2023-01-25T05:35:15.086Z,100886.79
2023-01-25T05:37:44.519Z,100881.02
2023-01-25T05:40:17.979Z,100875.60
2023-01-25T05:42:54.155Z,100874.55
2023-01-25T05:45:22.783Z,100874.55
2023-01-25T05:47:56.125Z,100872.80
2023-01-25T05:50:26.641Z,100872.45
2023-01-25T05:53:15.166Z,100875.24
2023-01-25T05:55:43.514Z,100879.97
2023-01-25T05:58:15.779Z,100878.73
2023-01-25T06:00:44.786Z,100881.19
2023-01-25T06:03:16.681Z,100883.63
2023-01-25T06:05:45.306Z,100880.66
2023-01-25T06:08:13.522Z,100882.23
2023-01-25T06:10:51.574Z,100878.58
2023-01-25T06:13:22.408Z,100878.74
2023-01-25T06:15:56.012Z,100876.48
2023-01-25T06:18:50.802Z,100875.77
2023-01-25T06:21:31.859Z,100876.15
2023-01-25T06:24:00.240Z,100874.41
2023-01-25T06:26:28.638Z,100874.05
2023-01-25T06:28:57.487Z,100875.77
2023-01-25T06:31:26.047Z,100873.52
2023-01-25T06:33:54.830Z,100869.99
2023-01-25T06:36:24.295Z,100867.72
2023-01-25T06:38:53.562Z,100866.17
2023-01-25T06:41:23.469Z,100861.80
2023-01-25T06:43:52.737Z,100862.13
2023-01-25T06:46:21.686Z,100859.84
2023-01-25T06:48:50.189Z,100858.96
2023-01-25T06:51:19.379Z,100859.30
2023-01-25T06:53:48.354Z,100861.91
2023-01-25T06:56:21.652Z,100854.89
2023-01-25T06:58:50.824Z,100857.36
2023-01-25T07:01:22.202Z,100859.30
2023-01-25T07:03:52.587Z,100859.30
2023-01-25T07:06:21.931Z,100854.89
2023-01-25T07:08:50.938Z,100858.94
2023-01-25T07:11:19.588Z,100853.48
2023-01-25T07:13:48.930Z,100851.02
2023-01-25T07:16:20.657Z,100854.86
2023-01-25T07:18:49.191Z,100852.36
2023-01-25T07:21:26.679Z,100847.61
2023-01-25T07:24:02.791Z,100847.22
2023-01-25T07:26:32.569Z,100847.67
2023-01-25T07:29:02.370Z,100844.66
2023-01-25T07:31:31.261Z,100846.50
2023-01-25T07:33:59.708Z,100840.34
2023-01-25T07:36:28.247Z,100835.73
2023-01-25T07:38:58.480Z,100830.98
2023-01-25T07:41:27.463Z,100825.70
2023-01-25T07:43:56.289Z,100827.25
2023-01-25T07:46:41.244Z,100826.90
2023-01-25T07:49:10.369Z,100827.02
2023-01-25T07:51:38.773Z,100820.48
2023-01-25T07:54:07.280Z,100815.58
2023-01-25T07:56:38.643Z,100813.98
2023-01-25T07:59:10.218Z,100814.08
2023-01-25T08:01:40.317Z,100815.20
2023-01-25T08:04:09.875Z,100811.42
2023-01-25T08:06:39.618Z,100803.48
2023-01-25T08:09:13.388Z,100804.84
2023-01-25T08:11:42.651Z,100802.48
2023-01-25T08:14:14.057Z,100800.19
2023-01-25T08:16:42.955Z,100805.76
2023-01-25T08:19:11.917Z,100807.30
2023-01-25T08:21:40.327Z,100804.63
2023-01-25T08:24:09.881Z,100800.05
2023-01-25T08:26:38.498Z,100802.02
2023-01-25T08:29:07.051Z,100800.95
2023-01-25T08:31:44.133Z,100796.14
2023-01-25T08:34:12.919Z,100796.27
2023-01-25T08:36:41.334Z,100794.51
2023-01-25T08:39:11.981Z,100797.04
2023-01-25T08:41:40.547Z,100788.71
2023-01-25T08:44:09.695Z,100788.20
2023-01-25T08:46:41.342Z,100788.48
2023-01-25T08:49:12.966Z,100790.28
2023-01-25T08:51:41.960Z,100787.86
2023-01-25T08:54:16.480Z,100786.84
2023-01-25T08:56:44.975Z,100784.04
2023-01-25T08:59:16.825Z,100779.86
2023-01-25T09:01:45.492Z,100778.32
2023-01-25T09:04:13.978Z,100778.98
2023-01-25T09:06:42.312Z,100780.16
2023-01-25T09:09:13.484Z,100782.27
2023-01-25T09:11:42.269Z,100783.52
2023-01-25T09:14:12.908Z,100781.17
2023-01-25T09:16:41.949Z,100780.94
2023-01-25T09:19:10.340Z,100781.63
2023-01-25T09:21:42.672Z,100778.26
2023-01-25T09:24:18.597Z,100769.45
2023-01-25T09:26:55.927Z,100765.23
2023-01-25T09:29:39.571Z,100762.65
2023-01-25T09:32:10.598Z,100757.24
2023-01-25T09:34:51.134Z,100753.90
2023-01-25T09:37:19.607Z,100748.44
2023-01-25T09:39:48.169Z,100746.33
2023-01-25T09:42:37.151Z,100745.19
2023-01-25T09:45:14.222Z,100740.67
2023-01-25T09:47:56.299Z,100734.81
2023-01-25T09:50:35.185Z,100733.71
2023-01-25T09:53:27.138Z,100728.95
2023-01-25T09:55:59.843Z,100723.75
2023-01-25T09:58:43.280Z,100716.83
2023-01-25T10:01:38.585Z,100711.70
2023-01-25T10:04:26.033Z,100705.59
2023-01-25T10:07:01.681Z,100698.13
2023-01-25T10:10:11.005Z,100691.81
2023-01-25T10:12:40.111Z,100685.99
2023-01-25T10:15:21.256Z,100679.86
2023-01-25T10:18:08.602Z,100684.70
2023-01-25T10:20:53.453Z,100672.58
2023-01-25T10:24:00.326Z,100666.45
2023-01-25T10:26:33.467Z,100666.90
2023-01-25T10:29:23.163Z,100666.61
2023-01-25T10:32:10.612Z,100660.63
2023-01-25T10:34:56.832Z,100659.84
2023-01-25T10:37:31.247Z,100657.55
2023-01-25T10:40:22.716Z,100656.13
2023-01-25T10:43:01.105Z,100653.48
2023-01-25T10:45:30.666Z,100651.70
2023-01-25T10:48:06.740Z,100652.89
2023-01-25T10:50:46.616Z,100647.45
2023-01-25T10:53:34.974Z,100644.65
2023-01-25T10:56:09.347Z,100642.77
2023-01-25T10:58:45.473Z,100640.28
2023-01-25T11:01:25.837Z,100638.54
2023-01-25T11:03:55.171Z,100636.84
2023-01-25T11:06:39.345Z,100631.52
2023-01-25T11:09:23.327Z,100627.35
2023-01-25T11:12:00.241Z,100623.91
2023-01-25T11:14:33.899Z,100622.03
2023-01-25T11:17:06.265Z,100617.84
2023-01-25T11:19:38.052Z,100616.39
2023-01-25T11:22:18.879Z,100610.58
2023-01-25T11:24:47.739Z,100605.80
2023-01-25T11:27:16.113Z,100598.98
2023-01-25T11:29:47.422Z,100598.58
2023-01-25T11:32:25.247Z,100593.39
2023-01-25T11:34:55.264Z,100589.52
2023-01-25T11:37:42.605Z,100590.47
2023-01-25T11:40:19.396Z,100591.74
2023-01-25T11:43:03.644Z,100582.67
2023-01-25T11:46:01.982Z,100574.08
2023-01-25T11:48:47.656Z,100564.67
2023-01-25T11:51:33.931Z,100560.27
2023-01-25T11:54:09.299Z,100554.66
2023-01-25T11:56:53.810Z,100550.40
2023-01-25T11:59:28.371Z,100546.95
2023-01-25T12:02:16.431Z,100542.80
2023-01-25T12:04:57.074Z,100538.94
2023-01-25T12:07:53.747Z,100533.60
2023-01-25T12:10:34.711Z,100527.17
2023-01-25T12:13:12.361Z,100528.29
2023-01-25T12:16:02.534Z,100523.27
2023-01-25T12:19:01.926Z,100515.99
2023-01-25T12:21:52.317Z,100513.73
2023-01-25T12:24:44.710Z,100509.14
2023-01-25T12:27:36.088Z,100505.97
2023-01-25T12:30:33.422Z,100505.00
2023-01-25T12:33:15.099Z,100501.07
2023-01-25T12:35:54.954Z,100500.05
2023-01-25T12:39:03.759Z,100498.67
2023-01-25T12:41:40.118Z,100498.08
2023-01-25T12:44:21.417Z,100493.13
2023-01-25T12:46:52.684Z,100483.96
2023-01-25T12:49:37.769Z,100483.23
2023-01-25T12:52:15.891Z,100478.36
2023-01-25T12:54:47.734Z,100476.45
2023-01-25T12:57:20.339Z,100472.35
2023-01-25T12:59:59.942Z,100473.02
2023-01-25T13:02:34.573Z,100474.40
2023-01-25T13:05:30.983Z,100471.19
2023-01-25T13:08:30.172Z,100466.18
2023-01-25T13:11:32.644Z,100469.29
2023-01-25T13:14:31.842Z,100469.37
2023-01-25T13:17:36.377Z,100465.41
2023-01-25T13:20:40.249Z,100466.38
2023-01-25T13:23:47.669Z,100460.74
2023-01-25T13:26:22.150Z,100454.76
2023-01-25T13:28:55.368Z,100448.10
2023-01-25T13:31:55.893Z,100446.54
2023-01-25T13:34:42.642Z,100442.80
2023-01-25T13:37:20.612Z,100439.30
2023-01-25T13:39:57.533Z,100440.61
2023-01-25T13:42:37.088Z,100443.40
2023-01-25T13:45:18.815Z,100445.66
2023-01-25T13:48:13.428Z,100440.14
2023-01-25T13:50:52.635Z,100434.94
2023-01-25T13:53:25.135Z,100430.59
2023-01-25T13:55:56.568Z,100424.38
2023-01-25T13:58:30.742Z,100430.16
2023-01-25T14:01:12.360Z,100422.80
2023-01-25T14:03:45.203Z,100415.48
2023-01-25T14:06:20.031Z,100414.64
2023-01-25T14:08:50.677Z,100412.14
2023-01-25T14:11:26.255Z,100409.30
2023-01-25T14:14:01.646Z,100407.65
2023-01-25T14:16:32.166Z,100405.67
2023-01-25T14:19:23.682Z,100404.54
2023-01-25T14:22:31.397Z,100401.48
2023-01-25T14:25:07.467Z,100400.53
2023-01-25T14:27:41.569Z,100397.98
2023-01-25T14:30:18.026Z,100393.90
2023-01-25T14:32:47.146Z,100391.53
2023-01-25T14:35:42.272Z,100388.10
2023-01-25T14:38:25.792Z,100382.73
2023-01-25T14:41:02.534Z,100377.67
2023-01-25T14:43:31.570Z,100375.27
2023-01-25T14:45:59.880Z,100374.64
2023-01-25T14:48:41.646Z,100377.69
2023-01-25T14:51:13.182Z,100377.20
2023-01-25T14:53:46.834Z,100380.56
2023-01-25T14:56:25.844Z,100377.26
2023-01-25T14:58:59.597Z,100379.58
2023-01-25T15:01:40.059Z,100381.05
2023-01-25T15:04:13.657Z,100375.52
2023-01-25T15:06:51.189Z,100375.39
2023-01-25T15:09:31.809Z,100371.73
2023-01-25T15:12:27.496Z,100369.15
2023-01-25T15:14:58.620Z,100363.95
2023-01-25T15:17:41.109Z,100361.38
2023-01-25T15:20:41.764Z,100359.66
2023-01-25T15:23:26.422Z,100361.11
2023-01-25T15:25:57.203Z,100364.15
2023-01-25T15:28:28.584Z,100358.27
2023-01-25T15:30:59.670Z,100356.23
2023-01-25T15:33:30.441Z,100352.11
2023-01-25T15:35:59.488Z,100352.53
2023-01-25T15:38:27.850Z,100351.35
2023-01-25T15:41:01.472Z,100348.25
2023-01-25T15:43:29.867Z,100343.35
2023-01-25T15:46:00.351Z,100344.94
2023-01-25T15:48:43.006Z,100342.35
2023-01-25T15:51:13.422Z,100341.67
2023-01-25T15:53:41.921Z,100339.08
2023-01-25T15:56:18.403Z,100342.62
2023-01-25T15:58:55.836Z,100344.92
2023-01-25T16:01:27.726Z,100343.53
2023-01-25T16:03:57.898Z,100337.94
2023-01-25T16:06:42.177Z,100339.89
2023-01-25T16:09:21.582Z,100334.70
2023-01-25T16:11:56.071Z,100333.84
2023-01-25T16:14:30.461Z,100328.95
2023-01-25T16:17:02.681Z,100326.34
2023-01-25T16:19:32.203Z,100322.48
2023-01-25T16:22:00.575Z,100321.45
2023-01-25T16:24:28.950Z,100318.11
2023-01-25T16:26:59.260Z,100312.86
2023-01-25T16:29:27.735Z,100309.73
2023-01-25T16:31:56.362Z,100305.88
2023-01-25T16:34:24.825Z,100299.58
2023-01-25T16:36:53.324Z,100294.67
2023-01-25T16:39:24.110Z,100291.70
2023-01-25T16:41:52.597Z,100286.81
2023-01-25T16:44:20.990Z,100280.73
2023-01-25T16:46:50.526Z,100280.56
2023-01-25T16:49:27.587Z,100276.58
2023-01-25T16:51:57.959Z,100278.20
2023-01-25T16:54:27.029Z,100278.58
2023-01-25T16:56:55.467Z,100278.61
2023-01-25T16:59:24.955Z,100272.13
2023-01-25T17:01:53.463Z,100268.10
2023-01-25T17:04:21.813Z,100263.22
2023-01-25T17:06:53.206Z,100261.84
2023-01-25T17:09:24.792Z,100256.09
2023-01-25T17:11:55.416Z,100258.90
2023-01-25T17:14:23.931Z,100258.05
2023-01-25T17:16:53.851Z,100257.54
2023-01-25T17:19:23.812Z,100254.77
2023-01-25T17:21:52.427Z,100249.75
2023-01-25T17:24:21.979Z,100244.00
2023-01-25T17:26:51.868Z,100249.23
2023-01-25T17:29:21.848Z,100246.79
2023-01-25T17:31:51.037Z,100247.33
2023-01-25T17:34:19.855Z,100246.11
2023-01-25T17:36:50.397Z,100248.56
2023-01-25T17:39:20.945Z,100242.61
2023-01-25T17:41:51.471Z,100241.55
2023-01-25T17:44:22.911Z,100241.02
2023-01-25T17:46:51.859Z,100239.80
2023-01-25T17:49:22.800Z,100236.47
2023-01-25T17:51:53.948Z,100230.52
2023-01-25T17:54:22.634Z,100228.09
2023-01-25T17:56:51.271Z,100234.21
2023-01-25T17:59:20.126Z,100232.15
2023-01-25T18:01:48.893Z,100228.70
2023-01-25T18:04:17.757Z,100227.33
2023-01-25T18:06:46.435Z,100223.52
2023-01-25T18:09:15.182Z,100219.19
2023-01-25T18:11:43.878Z,100218.71
2023-01-25T18:14:17.052Z,100216.44
2023-01-25T18:16:45.657Z,100208.78
2023-01-25T18:19:14.214Z,100210.06
2023-01-25T18:21:43.409Z,100203.63
2023-01-25T18:24:15.047Z,100203.49
2023-01-25T18:26:43.538Z,100192.18
2023-01-25T18:29:15.200Z,100197.30
2023-01-25T18:31:43.676Z,100195.91
2023-01-25T18:34:12.186Z,100190.37
2023-01-25T18:36:40.579Z,100185.99
2023-01-25T18:39:09.156Z,100187.45
2023-01-25T18:41:37.607Z,100182.06
2023-01-25T18:44:06.239Z,100180.16
2023-01-25T18:46:34.756Z,100180.89
2023-01-25T18:49:03.797Z,100184.23
2023-01-25T18:51:32.932Z,100180.59
2023-01-25T18:54:01.672Z,100173.43
2023-01-25T18:56:31.705Z,100167.89
2023-01-25T18:59:00.309Z,100162.83
2023-01-25T19:01:32.958Z,100164.23
2023-01-25T19:04:01.760Z,100162.30
2023-01-25T19:06:30.537Z,100157.77
2023-01-25T19:09:00.095Z,100158.16
2023-01-25T19:11:28.710Z,100158.35
2023-01-25T19:13:58.612Z,100156.46
2023-01-25T19:16:27.495Z,100153.68
2023-01-25T19:18:56.151Z,100149.16
2023-01-25T19:21:27.452Z,100148.67
2023-01-25T19:23:56.679Z,100147.81
2023-01-25T19:26:26.746Z,100143.80
2023-01-25T19:28:56.336Z,100142.95
2023-01-25T19:31:27.170Z,100139.30
2023-01-25T19:33:58.073Z,100135.48
2023-01-25T19:36:28.965Z,100135.46
2023-01-25T19:38:57.702Z,100135.48
2023-01-25T19:41:29.071Z,100134.27
2023-01-25T19:44:00.352Z,100131.80
2023-01-25T19:46:34.846Z,100129.19
2023-01-25T19:49:08.235Z,100126.91
2023-01-25T19:51:41.635Z,100126.21
2023-01-25T19:54:15.931Z,100122.89
2023-01-25T19:56:50.136Z,100119.76
2023-01-25T19:59:25.744Z,100120.98
2023-01-25T20:01:54.923Z,100115.25
2023-01-25T20:04:25.043Z,100115.08
2023-01-25T20:06:53.709Z,100113.84
2023-01-25T20:09:28.312Z,100110.71
2023-01-25T20:11:57.907Z,100107.58
2023-01-25T20:14:26.543Z,100105.52
2023-01-25T20:16:55.214Z,100105.51
2023-01-25T20:19:23.680Z,100100.63
2023-01-25T20:21:52.337Z,100099.95
2023-01-25T20:24:20.935Z,100094.70
2023-01-25T20:26:49.587Z,100097.67
2023-01-25T20:29:19.970Z,100099.27
2023-01-25T20:31:48.435Z,100097.56
2023-01-25T20:34:20.848Z,100093.40
2023-01-25T20:36:51.385Z,100091.69
2023-01-25T20:39:21.701Z,100092.75
2023-01-25T20:41:53.906Z,100091.40
2023-01-25T20:44:22.797Z,100094.91
2023-01-25T20:46:52.229Z,100093.17
2023-01-25T20:49:20.877Z,100095.11
2023-01-25T20:51:49.406Z,100092.52
2023-01-25T20:54:18.525Z,100090.45
2023-01-25T20:56:48.307Z,100084.52
2023-01-25T20:59:18.199Z,100083.10
2023-01-25T21:01:47.049Z,100080.13
2023-01-25T21:04:15.504Z,100075.08
2023-01-25T21:06:44.137Z,100074.05
2023-01-25T21:09:12.875Z,100078.77
2023-01-25T21:11:41.604Z,100082.63
2023-01-25T21:14:10.179Z,100077.94
2023-01-25T21:16:39.804Z,100079.02
2023-01-25T21:19:08.643Z,100079.76
2023-01-25T21:21:39.275Z,100073.34
2023-01-25T21:24:15.019Z,100076.34
2023-01-25T21:26:43.714Z,100072.52
2023-01-25T21:29:12.234Z,100072.01
2023-01-25T21:31:54.082Z,100068.02
2023-01-25T21:34:23.377Z,100066.48
2023-01-25T21:36:51.949Z,100061.64
2023-01-25T21:39:26.877Z,100060.25
2023-01-25T21:41:55.891Z,100060.61
2023-01-25T21:44:43.357Z,100058.02
2023-01-25T21:47:29.477Z,100060.11
2023-01-25T21:50:21.561Z,100058.23
2023-01-25T21:52:49.921Z,100053.20
2023-01-25T21:55:19.280Z,100049.55
2023-01-25T21:57:49.245Z,100049.02
2023-01-25T22:00:18.137Z,100045.48
2023-01-25T22:02:46.581Z,100045.31
2023-01-25T22:05:15.174Z,100042.39
2023-01-25T22:07:43.622Z,100034.74
2023-01-25T22:10:12.178Z,100031.42
2023-01-25T22:12:40.815Z,100018.67
2023-01-25T22:15:09.532Z,100014.65
2023-01-25T22:17:37.975Z,100013.06
2023-01-25T22:20:08.526Z,100012.52
2023-01-25T22:22:37.241Z,100011.63
2023-01-25T22:25:06.928Z,100008.42
2023-01-25T22:27:49.466Z,100008.77
2023-01-25T22:30:17.922Z,100003.05
2023-01-25T22:32:46.303Z,99996.59
2023-01-25T22:35:14.613Z,99994.48
2023-01-25T22:37:43.001Z,99993.62
2023-01-25T22:40:12.389Z,99990.85
2023-01-25T22:42:42.276Z,99987.23
2023-01-25T22:45:10.651Z,99985.16
2023-01-25T22:47:38.989Z,99987.31
2023-01-25T22:50:08.005Z,99988.23
2023-01-25T22:52:36.871Z,99984.94
2023-01-25T22:55:05.390Z,99978.48
2023-01-25T22:57:33.692Z,99976.90
2023-01-25T23:00:02.188Z,99969.39
2023-01-25T23:02:30.874Z,99971.13
2023-01-25T23:04:59.303Z,99964.52
2023-01-25T23:07:27.713Z,99961.76
2023-01-25T23:09:56.029Z,99960.35
2023-01-25T23:12:24.303Z,99957.06
2023-01-25T23:14:54.129Z,99954.43
2023-01-25T23:17:42.983Z,99948.33
2023-01-25T23:20:12.872Z,99942.77
2023-01-25T23:22:41.673Z,99940.53
2023-01-25T23:25:12.238Z,99943.50
2023-01-25T23:27:41.695Z,99941.60
2023-01-25T23:30:10.978Z,99942.30
2023-01-25T23:32:49.398Z,99942.84
2023-01-25T23:35:20.549Z,99938.81
2023-01-25T23:37:49.019Z,99940.55
2023-01-25T23:40:17.436Z,99936.89
2023-01-25T23:42:45.860Z,99929.06
2023-01-25T23:45:14.125Z,99923.81
2023-01-25T23:47:42.378Z,99919.25
2023-01-25T23:50:11.907Z,99911.92
2023-01-25T23:52:40.780Z,99917.67
2023-01-25T23:55:09.696Z,99915.77
2023-01-25T23:57:38.167Z,99913.48
